Terminal Aerodrome Forecast
Issued by NWS Caribou, ME

Home | Current Version | Previous Version | Text Only | Print | Product List | Glossary On
Versions: 1 2 3 4 5 6 7 8 9 10 11 12 13 14 15
000
FTUS41 KCAR 260831 AAA
TAFBGR
TAF AMD
KBGR 260831Z 2609/2706 18004KT 1/2SM FG OVC002
      TEMPO 2609/2611 1/4SM FG VV002
     FM261200 25006KT P6SM OVC010
     FM261400 29006KT P6SM VCSH BKN050
     FM262000 31008KT P6SM SCT050 BKN100=

USA.gov is the U.S. government's official web portal to all federal, state and local government web resources and services.